CDT,Max TemperatureF,Mean TemperatureF,Min TemperatureF,Max Dew PointF,MeanDew PointF,Min DewpointF,Max Humidity, Mean Humidity, Min Humidity, Max Sea Level PressureIn, Mean Sea Level PressureIn, Min Sea Level PressureIn, Max VisibilityMiles, Mean VisibilityMiles, Min VisibilityMiles, Max Wind SpeedMPH, Mean Wind SpeedMPH, Max Gust SpeedMPH,PrecipitationIn, CloudCover, Events, WindDirDegrees
2012-7-1,89,80,72,73,69,59,92,70,39,29.99,29.93,29.87,10,10,5,17,3,31,0.00,1,Thunderstorm,170
2012-7-2,95,82,70,78,71,67,95,70,43,30.00,29.96,29.91,10,10,7,9,2,,0.00,0,,197
2012-7-3,93,81,69,77,71,65,87,69,48,29.96,29.90,29.84,10,10,10,14,6,17,0.00,0,,202
2012-7-4,96,84,74,78,72,68,88,66,41,29.94,29.90,29.87,10,10,10,8,5,,0.00,0,,212
2012-7-5,97,84,72,79,71,66,92,65,40,29.99,29.96,29.91,10,10,10,10,3,,0.00,0,,227
2012-7-6,99,86,73,81,73,69,95,68,39,30.02,29.98,29.95,10,10,7,7,2,,0.00,0,,271
2012-7-7,100,86,73,80,73,66,96,66,33,30.00,29.97,29.93,10,10,4,15,2,,0.00,0,,276
2012-7-8,88,77,66,67,60,56,82,55,35,30.09,30.05,30.00,10,10,10,18,10,23,0.00,2,,38
2012-7-9,91,76,61,67,61,55,91,59,32,30.09,30.06,30.00,10,10,10,10,2,,0.00,2,,332
2012-7-10,87,78,69,67,60,54,81,57,41,30.10,30.08,30.04,10,10,10,17,6,21,0.00,3,,82
2012-7-11,89,75,62,61,55,50,77,50,27,30.16,30.11,30.07,10,10,10,13,6,20,0.00,1,,58
2012-7-12,93,77,61,64,60,55,82,57,29,30.08,30.05,30.01,10,10,10,7,1,,0.00,0,,59
2012-7-13,87,77,68,70,66,61,89,69,49,30.08,30.04,30.01,10,10,10,14,4,16,0.00,2,Thunderstorm,104
2012-7-14,90,80,69,71,67,64,94,70,44,30.09,30.04,29.99,10,10,7,9,3,,0.00,2,Rain-Thunderstorm,195
2012-7-15,96,82,67,73,68,64,97,68,36,30.09,30.04,29.99,10,9,2,12,2,,0.00,1,,211
2012-7-16,95,82,68,73,70,66,91,64,38,30.04,29.96,29.86,10,10,10,10,4,,0.00,1,,203
2012-7-17,98,85,73,72,69,64,87,58,34,29.91,29.88,29.84,10,10,10,13,5,20,0.00,0,,222
2012-7-18,100,86,71,72,69,64,88,56,30,29.93,29.88,29.82,10,10,10,13,4,17,0.00,1,,202
2012-7-19,91,80,70,74,71,64,94,72,52,30.03,29.91,29.84,10,10,7,17,10,22,0.00,2,Rain-Thunderstorm,337
2012-7-20,84,75,66,67,65,62,95,72,48,30.12,30.07,30.00,10,10,7,14,9,17,0.00,5,,21
2012-7-21,87,74,61,71,65,60,96,70,46,30.14,30.09,30.04,10,9,3,9,1,,0.00,1,Rain,177
2012-7-22,94,82,70,66,64,60,79,53,33,30.14,30.05,30.00,10,10,10,16,5,21,0.00,1,,178
2012-7-23,103,88,72,72,66,63,73,51,28,30.03,29.98,29.92,10,10,10,14,8,18,0.00,0,,220
2012-7-24,92,84,75,72,68,66,77,57,43,30.01,29.93,29.88,10,10,10,12,6,,0.00,0,,107
2012-7-25,101,87,73,72,67,62,90,52,28,29.89,29.75,29.63,10,10,7,22,9,30,0.00,0,,192
2012-7-26,90,78,68,73,70,65,93,78,51,29.84,29.77,29.63,10,10,5,16,8,22,0.00,4,Rain-Thunderstorm,254
2012-7-27,85,74,64,68,63,59,95,69,43,30.03,29.92,29.82,10,10,10,15,7,22,0.00,2,Rain,298
2012-7-28,82,71,60,68,63,58,96,76,50,30.17,30.11,30.04,10,10,7,7,2,,0.00,1,Rain,2
2012-7-29,89,77,65,68,65,63,93,66,42,30.11,30.00,29.94,10,10,7,13,5,17,0.00,1,Rain,126
2012-7-30,92,80,67,73,68,64,90,68,43,29.96,29.93,29.90,10,10,7,6,3,,0.00,1,,131
2012-7-31,93,80,68,74,68,60,98,71,33,29.96,29.93,29.90,10,9,2,10,4,,0.00,0,,296